sensor_id;sensor_type;location;lat;lon;timestamp;P1;durP1;ratioP1;P2;durP2;ratioP2
55633;SDS011;41504;53.162;6.788;2023-07-13T00:01:43;8.40;;;2.42;;
55633;SDS011;41504;53.162;6.788;2023-07-13T00:04:08;7.68;;;2.55;;
55633;SDS011;41504;53.162;6.788;2023-07-13T00:06:34;6.13;;;2.20;;
55633;SDS011;41504;53.162;6.788;2023-07-13T00:09:00;6.35;;;2.42;;
55633;SDS011;41504;53.162;6.788;2023-07-13T00:11:26;7.75;;;2.60;;
55633;SDS011;41504;53.162;6.788;2023-07-13T00:13:52;7.78;;;2.70;;
55633;SDS011;41504;53.162;6.788;2023-07-13T00:16:18;7.05;;;2.55;;
55633;SDS011;41504;53.162;6.788;2023-07-13T00:18:44;7.03;;;2.50;;
55633;SDS011;41504;53.162;6.788;2023-07-13T00:21:11;8.70;;;2.83;;
55633;SDS011;41504;53.162;6.788;2023-07-13T00:23:38;7.22;;;2.65;;
55633;SDS011;41504;53.162;6.788;2023-07-13T00:26:05;8.65;;;2.58;;
55633;SDS011;41504;53.162;6.788;2023-07-13T00:28:32;8.98;;;2.80;;
55633;SDS011;41504;53.162;6.788;2023-07-13T00:30:59;9.70;;;2.70;;
55633;SDS011;41504;53.162;6.788;2023-07-13T00:33:26;10.68;;;3.25;;
55633;SDS011;41504;53.162;6.788;2023-07-13T00:35:55;9.48;;;2.80;;
55633;SDS011;41504;53.162;6.788;2023-07-13T00:38:21;8.68;;;2.95;;
55633;SDS011;41504;53.162;6.788;2023-07-13T00:40:47;10.20;;;3.22;;
55633;SDS011;41504;53.162;6.788;2023-07-13T00:43:14;8.27;;;2.85;;
55633;SDS011;41504;53.162;6.788;2023-07-13T00:48:08;8.35;;;2.80;;
55633;SDS011;41504;53.162;6.788;2023-07-13T00:50:35;11.60;;;3.03;;
55633;SDS011;41504;53.162;6.788;2023-07-13T00:53:00;9.60;;;2.90;;
55633;SDS011;41504;53.162;6.788;2023-07-13T00:55:27;9.77;;;2.80;;
55633;SDS011;41504;53.162;6.788;2023-07-13T00:57:53;9.50;;;2.72;;
55633;SDS011;41504;53.162;6.788;2023-07-13T01:00:19;9.40;;;2.78;;
55633;SDS011;41504;53.162;6.788;2023-07-13T01:02:48;10.25;;;3.10;;
55633;SDS011;41504;53.162;6.788;2023-07-13T01:05:18;10.48;;;3.10;;
55633;SDS011;41504;53.162;6.788;2023-07-13T01:07:46;9.23;;;2.90;;
55633;SDS011;41504;53.162;6.788;2023-07-13T01:10:15;9.40;;;2.85;;
55633;SDS011;41504;53.162;6.788;2023-07-13T01:12:41;9.60;;;3.35;;
55633;SDS011;41504;53.162;6.788;2023-07-13T01:15:33;11.98;;;3.25;;
55633;SDS011;41504;53.162;6.788;2023-07-13T01:18:04;12.05;;;3.30;;
55633;SDS011;41504;53.162;6.788;2023-07-13T01:20:35;10.85;;;2.85;;
55633;SDS011;41504;53.162;6.788;2023-07-13T01:23:05;11.95;;;3.42;;
55633;SDS011;41504;53.162;6.788;2023-07-13T01:25:32;9.90;;;3.08;;
55633;SDS011;41504;53.162;6.788;2023-07-13T01:28:00;9.88;;;2.88;;
55633;SDS011;41504;53.162;6.788;2023-07-13T01:30:26;9.23;;;3.15;;
55633;SDS011;41504;53.162;6.788;2023-07-13T01:32:52;13.57;;;3.85;;
55633;SDS011;41504;53.162;6.788;2023-07-13T01:35:18;9.35;;;3.17;;
55633;SDS011;41504;53.162;6.788;2023-07-13T01:37:43;8.77;;;3.05;;
55633;SDS011;41504;53.162;6.788;2023-07-13T01:40:10;11.27;;;3.08;;
55633;SDS011;41504;53.162;6.788;2023-07-13T01:42:36;11.65;;;3.88;;
55633;SDS011;41504;53.162;6.788;2023-07-13T01:45:02;9.82;;;3.03;;
55633;SDS011;41504;53.162;6.788;2023-07-13T01:47:28;10.52;;;2.88;;
55633;SDS011;41504;53.162;6.788;2023-07-13T01:49:56;9.52;;;3.20;;
55633;SDS011;41504;53.162;6.788;2023-07-13T01:52:22;10.45;;;3.17;;
55633;SDS011;41504;53.162;6.788;2023-07-13T01:54:48;9.38;;;3.40;;
55633;SDS011;41504;53.162;6.788;2023-07-13T01:57:14;12.52;;;3.92;;
55633;SDS011;41504;53.162;6.788;2023-07-13T01:59:40;10.98;;;3.35;;
55633;SDS011;41504;53.162;6.788;2023-07-13T02:02:05;9.30;;;3.05;;
55633;SDS011;41504;53.162;6.788;2023-07-13T02:04:31;14.38;;;3.78;;
55633;SDS011;41504;53.162;6.788;2023-07-13T02:06:58;9.77;;;3.30;;
55633;SDS011;41504;53.162;6.788;2023-07-13T02:09:23;13.25;;;3.47;;
55633;SDS011;41504;53.162;6.788;2023-07-13T02:11:49;9.80;;;3.35;;
55633;SDS011;41504;53.162;6.788;2023-07-13T02:14:15;9.60;;;3.20;;
55633;SDS011;41504;53.162;6.788;2023-07-13T02:16:41;10.48;;;3.40;;
55633;SDS011;41504;53.162;6.788;2023-07-13T02:19:07;13.30;;;3.67;;
55633;SDS011;41504;53.162;6.788;2023-07-13T02:21:33;10.63;;;3.42;;
55633;SDS011;41504;53.162;6.788;2023-07-13T02:23:59;11.25;;;3.22;;
55633;SDS011;41504;53.162;6.788;2023-07-13T02:26:25;13.40;;;3.78;;
55633;SDS011;41504;53.162;6.788;2023-07-13T02:28:52;10.38;;;3.83;;
55633;SDS011;41504;53.162;6.788;2023-07-13T02:31:17;10.95;;;3.30;;
55633;SDS011;41504;53.162;6.788;2023-07-13T02:33:43;13.02;;;3.55;;
55633;SDS011;41504;53.162;6.788;2023-07-13T02:36:10;13.38;;;3.50;;
55633;SDS011;41504;53.162;6.788;2023-07-13T02:38:36;10.55;;;3.50;;
55633;SDS011;41504;53.162;6.788;2023-07-13T02:41:06;13.90;;;3.20;;
55633;SDS011;41504;53.162;6.788;2023-07-13T02:43:33;12.80;;;3.70;;
55633;SDS011;41504;53.162;6.788;2023-07-13T02:46:00;11.63;;;3.42;;
55633;SDS011;41504;53.162;6.788;2023-07-13T02:48:32;10.82;;;3.63;;
55633;SDS011;41504;53.162;6.788;2023-07-13T02:50:58;11.18;;;3.95;;
55633;SDS011;41504;53.162;6.788;2023-07-13T02:53:24;11.82;;;3.30;;
55633;SDS011;41504;53.162;6.788;2023-07-13T02:55:49;9.77;;;3.10;;
55633;SDS011;41504;53.162;6.788;2023-07-13T02:58:15;9.98;;;3.03;;
55633;SDS011;41504;53.162;6.788;2023-07-13T03:00:42;12.80;;;3.30;;
55633;SDS011;41504;53.162;6.788;2023-07-13T03:03:09;11.95;;;3.17;;
55633;SDS011;41504;53.162;6.788;2023-07-13T03:05:37;13.40;;;3.55;;
55633;SDS011;41504;53.162;6.788;2023-07-13T03:08:03;10.85;;;3.20;;
55633;SDS011;41504;53.162;6.788;2023-07-13T03:10:29;10.93;;;3.78;;
55633;SDS011;41504;53.162;6.788;2023-07-13T03:12:54;9.40;;;2.83;;
55633;SDS011;41504;53.162;6.788;2023-07-13T03:15:20;10.45;;;3.42;;
55633;SDS011;41504;53.162;6.788;2023-07-13T03:17:46;9.25;;;3.45;;
55633;SDS011;41504;53.162;6.788;2023-07-13T03:20:12;8.77;;;3.00;;
55633;SDS011;41504;53.162;6.788;2023-07-13T03:22:38;8.85;;;3.00;;
55633;SDS011;41504;53.162;6.788;2023-07-13T03:25:04;10.25;;;3.20;;
55633;SDS011;41504;53.162;6.788;2023-07-13T03:27:30;9.90;;;2.92;;
55633;SDS011;41504;53.162;6.788;2023-07-13T03:29:55;10.00;;;3.88;;
55633;SDS011;41504;53.162;6.788;2023-07-13T03:32:21;8.82;;;3.38;;
55633;SDS011;41504;53.162;6.788;2023-07-13T03:34:47;10.48;;;3.55;;
55633;SDS011;41504;53.162;6.788;2023-07-13T03:37:12;11.90;;;3.47;;
55633;SDS011;41504;53.162;6.788;2023-07-13T03:39:38;11.15;;;3.30;;
55633;SDS011;41504;53.162;6.788;2023-07-13T03:42:04;13.27;;;4.00;;
55633;SDS011;41504;53.162;6.788;2023-07-13T03:44:30;11.27;;;3.70;;
55633;SDS011;41504;53.162;6.788;2023-07-13T03:46:56;10.27;;;3.63;;
55633;SDS011;41504;53.162;6.788;2023-07-13T03:49:22;10.88;;;3.53;;
55633;SDS011;41504;53.162;6.788;2023-07-13T03:51:47;9.40;;;3.28;;
55633;SDS011;41504;53.162;6.788;2023-07-13T03:54:13;9.30;;;3.50;;
55633;SDS011;41504;53.162;6.788;2023-07-13T03:56:38;12.93;;;3.95;;
55633;SDS011;41504;53.162;6.788;2023-07-13T03:59:04;13.57;;;4.25;;
55633;SDS011;41504;53.162;6.788;2023-07-13T04:01:30;10.85;;;3.72;;
55633;SDS011;41504;53.162;6.788;2023-07-13T04:03:56;9.73;;;3.47;;
55633;SDS011;41504;53.162;6.788;2023-07-13T04:06:23;11.00;;;3.72;;
55633;SDS011;41504;53.162;6.788;2023-07-13T04:08:52;12.77;;;4.07;;
55633;SDS011;41504;53.162;6.788;2023-07-13T04:11:21;13.32;;;3.65;;
55633;SDS011;41504;53.162;6.788;2023-07-13T04:13:48;10.48;;;3.80;;
55633;SDS011;41504;53.162;6.788;2023-07-13T04:16:15;11.80;;;3.42;;
55633;SDS011;41504;53.162;6.788;2023-07-13T04:18:42;11.07;;;3.95;;
55633;SDS011;41504;53.162;6.788;2023-07-13T04:21:08;13.73;;;3.70;;
55633;SDS011;41504;53.162;6.788;2023-07-13T04:23:35;13.35;;;3.75;;
55633;SDS011;41504;53.162;6.788;2023-07-13T04:26:01;12.85;;;4.05;;
55633;SDS011;41504;53.162;6.788;2023-07-13T04:28:27;13.15;;;3.88;;
55633;SDS011;41504;53.162;6.788;2023-07-13T04:30:53;11.77;;;3.70;;
55633;SDS011;41504;53.162;6.788;2023-07-13T04:33:19;15.05;;;4.07;;
55633;SDS011;41504;53.162;6.788;2023-07-13T04:35:52;10.95;;;3.80;;
55633;SDS011;41504;53.162;6.788;2023-07-13T04:38:25;13.20;;;3.45;;
55633;SDS011;41504;53.162;6.788;2023-07-13T04:40:57;12.82;;;3.72;;
55633;SDS011;41504;53.162;6.788;2023-07-13T04:43:25;12.68;;;3.92;;
55633;SDS011;41504;53.162;6.788;2023-07-13T04:45:52;12.60;;;3.80;;
55633;SDS011;41504;53.162;6.788;2023-07-13T04:48:18;10.15;;;3.78;;
55633;SDS011;41504;53.162;6.788;2023-07-13T04:50:45;10.63;;;3.35;;
55633;SDS011;41504;53.162;6.788;2023-07-13T04:53:11;12.30;;;3.65;;
55633;SDS011;41504;53.162;6.788;2023-07-13T04:55:37;11.18;;;3.90;;
55633;SDS011;41504;53.162;6.788;2023-07-13T04:58:03;10.13;;;3.55;;
55633;SDS011;41504;53.162;6.788;2023-07-13T05:00:29;11.13;;;3.95;;
55633;SDS011;41504;53.162;6.788;2023-07-13T05:02:56;11.02;;;3.58;;
55633;SDS011;41504;53.162;6.788;2023-07-13T05:05:23;10.25;;;4.20;;
55633;SDS011;41504;53.162;6.788;2023-07-13T05:07:49;10.23;;;3.83;;
55633;SDS011;41504;53.162;6.788;2023-07-13T05:10:15;11.80;;;3.67;;
55633;SDS011;41504;53.162;6.788;2023-07-13T05:12:41;11.57;;;3.42;;
55633;SDS011;41504;53.162;6.788;2023-07-13T05:15:07;13.55;;;4.00;;
55633;SDS011;41504;53.162;6.788;2023-07-13T05:17:33;11.80;;;3.60;;
55633;SDS011;41504;53.162;6.788;2023-07-13T05:19:58;15.02;;;3.97;;
55633;SDS011;41504;53.162;6.788;2023-07-13T05:22:24;11.10;;;3.80;;
55633;SDS011;41504;53.162;6.788;2023-07-13T05:24:50;11.55;;;4.18;;
55633;SDS011;41504;53.162;6.788;2023-07-13T05:27:16;11.35;;;4.18;;
55633;SDS011;41504;53.162;6.788;2023-07-13T05:29:41;10.57;;;3.67;;
55633;SDS011;41504;53.162;6.788;2023-07-13T05:32:07;10.15;;;3.78;;
55633;SDS011;41504;53.162;6.788;2023-07-13T05:34:33;13.50;;;3.97;;
55633;SDS011;41504;53.162;6.788;2023-07-13T05:36:59;10.70;;;3.78;;
55633;SDS011;41504;53.162;6.788;2023-07-13T05:39:24;13.93;;;3.95;;
55633;SDS011;41504;53.162;6.788;2023-07-13T05:41:51;9.77;;;3.70;;
55633;SDS011;41504;53.162;6.788;2023-07-13T05:44:17;10.35;;;4.03;;
55633;SDS011;41504;53.162;6.788;2023-07-13T05:46:43;10.98;;;4.07;;
55633;SDS011;41504;53.162;6.788;2023-07-13T05:49:09;12.80;;;3.97;;
55633;SDS011;41504;53.162;6.788;2023-07-13T05:51:36;10.93;;;4.10;;
55633;SDS011;41504;53.162;6.788;2023-07-13T05:54:02;8.82;;;3.65;;
55633;SDS011;41504;53.162;6.788;2023-07-13T05:56:28;9.30;;;3.58;;
55633;SDS011;41504;53.162;6.788;2023-07-13T05:58:54;13.23;;;4.05;;
55633;SDS011;41504;53.162;6.788;2023-07-13T06:01:20;11.23;;;3.60;;
55633;SDS011;41504;53.162;6.788;2023-07-13T06:03:47;10.25;;;3.67;;
55633;SDS011;41504;53.162;6.788;2023-07-13T06:06:16;10.00;;;3.22;;
55633;SDS011;41504;53.162;6.788;2023-07-13T06:08:42;12.15;;;3.45;;
55633;SDS011;41504;53.162;6.788;2023-07-13T06:11:09;11.93;;;3.85;;
55633;SDS011;41504;53.162;6.788;2023-07-13T06:13:39;10.80;;;3.83;;
55633;SDS011;41504;53.162;6.788;2023-07-13T06:16:05;8.95;;;3.28;;
55633;SDS011;41504;53.162;6.788;2023-07-13T06:18:33;9.90;;;3.47;;
55633;SDS011;41504;53.162;6.788;2023-07-13T06:21:00;9.07;;;2.85;;
55633;SDS011;41504;53.162;6.788;2023-07-13T06:23:37;11.35;;;2.90;;
55633;SDS011;41504;53.162;6.788;2023-07-13T06:26:03;8.45;;;2.80;;
55633;SDS011;41504;53.162;6.788;2023-07-13T06:28:29;10.93;;;2.92;;
55633;SDS011;41504;53.162;6.788;2023-07-13T06:30:57;8.95;;;3.08;;
55633;SDS011;41504;53.162;6.788;2023-07-13T06:33:23;13.65;;;2.90;;
55633;SDS011;41504;53.162;6.788;2023-07-13T06:35:49;10.13;;;2.85;;
55633;SDS011;41504;53.162;6.788;2023-07-13T06:38:15;10.98;;;3.15;;
55633;SDS011;41504;53.162;6.788;2023-07-13T06:40:41;9.85;;;3.03;;
55633;SDS011;41504;53.162;6.788;2023-07-13T06:43:06;8.70;;;3.13;;
55633;SDS011;41504;53.162;6.788;2023-07-13T06:45:35;10.40;;;2.70;;
55633;SDS011;41504;53.162;6.788;2023-07-13T06:48:10;10.73;;;3.38;;
55633;SDS011;41504;53.162;6.788;2023-07-13T06:50:36;7.80;;;2.85;;
55633;SDS011;41504;53.162;6.788;2023-07-13T06:53:02;8.40;;;2.80;;
55633;SDS011;41504;53.162;6.788;2023-07-13T06:55:28;7.97;;;2.85;;
55633;SDS011;41504;53.162;6.788;2023-07-13T06:57:54;9.23;;;2.70;;
55633;SDS011;41504;53.162;6.788;2023-07-13T07:00:19;7.00;;;2.72;;
55633;SDS011;41504;53.162;6.788;2023-07-13T07:02:45;7.38;;;2.60;;
55633;SDS011;41504;53.162;6.788;2023-07-13T07:05:11;11.18;;;2.80;;
55633;SDS011;41504;53.162;6.788;2023-07-13T07:07:36;6.25;;;2.60;;
55633;SDS011;41504;53.162;6.788;2023-07-13T07:10:02;8.73;;;2.72;;
55633;SDS011;41504;53.162;6.788;2023-07-13T07:12:28;13.52;;;2.67;;
55633;SDS011;41504;53.162;6.788;2023-07-13T07:14:54;9.25;;;2.55;;
55633;SDS011;41504;53.162;6.788;2023-07-13T07:17:20;8.95;;;2.60;;
55633;SDS011;41504;53.162;6.788;2023-07-13T07:19:46;8.70;;;2.55;;
55633;SDS011;41504;53.162;6.788;2023-07-13T07:22:11;10.73;;;2.70;;
55633;SDS011;41504;53.162;6.788;2023-07-13T07:24:37;9.38;;;2.50;;
55633;SDS011;41504;53.162;6.788;2023-07-13T07:27:03;8.68;;;2.75;;
55633;SDS011;41504;53.162;6.788;2023-07-13T07:29:29;6.93;;;2.20;;
55633;SDS011;41504;53.162;6.788;2023-07-13T07:31:54;7.57;;;2.35;;
55633;SDS011;41504;53.162;6.788;2023-07-13T07:34:20;8.32;;;3.00;;
55633;SDS011;41504;53.162;6.788;2023-07-13T07:36:46;9.98;;;2.65;;
55633;SDS011;41504;53.162;6.788;2023-07-13T07:39:12;5.57;;;2.30;;
55633;SDS011;41504;53.162;6.788;2023-07-13T07:41:37;9.35;;;2.97;;
55633;SDS011;41504;53.162;6.788;2023-07-13T07:44:03;9.90;;;3.58;;
55633;SDS011;41504;53.162;6.788;2023-07-13T07:46:29;9.80;;;3.00;;
55633;SDS011;41504;53.162;6.788;2023-07-13T07:48:55;8.13;;;2.80;;
55633;SDS011;41504;53.162;6.788;2023-07-13T07:51:21;6.68;;;2.90;;
55633;SDS011;41504;53.162;6.788;2023-07-13T07:53:47;7.95;;;2.92;;
55633;SDS011;41504;53.162;6.788;2023-07-13T07:56:13;8.23;;;3.05;;
55633;SDS011;41504;53.162;6.788;2023-07-13T07:58:41;7.70;;;2.80;;
55633;SDS011;41504;53.162;6.788;2023-07-13T08:01:07;10.93;;;3.00;;
55633;SDS011;41504;53.162;6.788;2023-07-13T08:03:33;6.43;;;2.30;;
55633;SDS011;41504;53.162;6.788;2023-07-13T08:05:59;6.90;;;2.45;;
55633;SDS011;41504;53.162;6.788;2023-07-13T08:08:25;6.30;;;2.47;;
55633;SDS011;41504;53.162;6.788;2023-07-13T08:10:51;7.35;;;2.20;;
55633;SDS011;41504;53.162;6.788;2023-07-13T08:13:17;7.65;;;2.42;;
55633;SDS011;41504;53.162;6.788;2023-07-13T08:15:42;8.50;;;2.78;;
55633;SDS011;41504;53.162;6.788;2023-07-13T08:18:08;7.55;;;2.50;;
55633;SDS011;41504;53.162;6.788;2023-07-13T08:20:40;8.80;;;2.28;;
55633;SDS011;41504;53.162;6.788;2023-07-13T08:23:06;5.65;;;2.13;;
55633;SDS011;41504;53.162;6.788;2023-07-13T08:25:34;3.90;;;1.80;;
55633;SDS011;41504;53.162;6.788;2023-07-13T08:28:00;9.10;;;2.55;;
55633;SDS011;41504;53.162;6.788;2023-07-13T08:30:27;6.45;;;2.35;;
55633;SDS011;41504;53.162;6.788;2023-07-13T08:32:53;4.50;;;1.85;;
55633;SDS011;41504;53.162;6.788;2023-07-13T08:35:19;6.15;;;2.28;;
55633;SDS011;41504;53.162;6.788;2023-07-13T08:37:44;6.55;;;2.15;;
55633;SDS011;41504;53.162;6.788;2023-07-13T08:40:10;6.22;;;2.28;;
55633;SDS011;41504;53.162;6.788;2023-07-13T08:42:39;5.88;;;2.60;;
55633;SDS011;41504;53.162;6.788;2023-07-13T08:45:17;6.40;;;2.25;;
55633;SDS011;41504;53.162;6.788;2023-07-13T08:50:48;8.32;;;2.50;;
55633;SDS011;41504;53.162;6.788;2023-07-13T08:53:20;6.80;;;2.20;;
55633;SDS011;41504;53.162;6.788;2023-07-13T08:55:48;6.25;;;2.42;;
55633;SDS011;41504;53.162;6.788;2023-07-13T08:58:22;7.13;;;2.08;;
55633;SDS011;41504;53.162;6.788;2023-07-13T09:07:04;8.00;;;3.10;;
55633;SDS011;41504;53.162;6.788;2023-07-13T09:09:50;6.70;;;2.50;;
55633;SDS011;41504;53.162;6.788;2023-07-13T09:12:35;6.30;;;2.20;;
55633;SDS011;41504;53.162;6.788;2023-07-13T09:18:25;6.10;;;2.05;;
55633;SDS011;41504;53.162;6.788;2023-07-13T09:20:57;8.30;;;2.00;;
55633;SDS011;41504;53.162;6.788;2023-07-13T09:23:27;5.90;;;2.08;;
55633;SDS011;41504;53.162;6.788;2023-07-13T09:25:58;6.68;;;2.20;;
55633;SDS011;41504;53.162;6.788;2023-07-13T09:28:43;5.30;;;2.10;;
55633;SDS011;41504;53.162;6.788;2023-07-13T09:31:13;6.43;;;2.40;;
55633;SDS011;41504;53.162;6.788;2023-07-13T09:33:41;4.28;;;2.28;;
55633;SDS011;41504;53.162;6.788;2023-07-13T09:38:49;7.20;;;2.63;;
55633;SDS011;41504;53.162;6.788;2023-07-13T09:41:33;5.18;;;2.30;;
55633;SDS011;41504;53.162;6.788;2023-07-13T09:44:14;5.63;;;2.35;;
55633;SDS011;41504;53.162;6.788;2023-07-13T09:46:54;7.95;;;2.50;;
55633;SDS011;41504;53.162;6.788;2023-07-13T09:49:27;5.32;;;2.70;;
55633;SDS011;41504;53.162;6.788;2023-07-13T09:52:09;5.72;;;2.75;;
55633;SDS011;41504;53.162;6.788;2023-07-13T09:54:37;9.27;;;3.22;;
55633;SDS011;41504;53.162;6.788;2023-07-13T09:57:08;5.30;;;2.60;;
55633;SDS011;41504;53.162;6.788;2023-07-13T09:59:43;6.38;;;2.90;;
55633;SDS011;41504;53.162;6.788;2023-07-13T10:02:28;9.40;;;3.00;;
55633;SDS011;41504;53.162;6.788;2023-07-13T10:05:05;6.50;;;2.83;;
55633;SDS011;41504;53.162;6.788;2023-07-13T10:07:40;8.88;;;3.20;;
55633;SDS011;41504;53.162;6.788;2023-07-13T10:10:16;7.15;;;2.92;;
55633;SDS011;41504;53.162;6.788;2023-07-13T10:12:45;7.50;;;3.50;;
55633;SDS011;41504;53.162;6.788;2023-07-13T10:15:21;7.13;;;3.13;;
55633;SDS011;41504;53.162;6.788;2023-07-13T10:17:54;5.40;;;2.38;;
55633;SDS011;41504;53.162;6.788;2023-07-13T10:20:20;3.92;;;1.92;;
55633;SDS011;41504;53.162;6.788;2023-07-13T10:22:50;7.95;;;3.10;;
55633;SDS011;41504;53.162;6.788;2023-07-13T10:25:24;8.98;;;3.92;;
55633;SDS011;41504;53.162;6.788;2023-07-13T10:27:53;6.57;;;3.13;;
55633;SDS011;41504;53.162;6.788;2023-07-13T10:30:28;5.97;;;3.20;;
55633;SDS011;41504;53.162;6.788;2023-07-13T10:33:03;6.97;;;3.20;;
55633;SDS011;41504;53.162;6.788;2023-07-13T10:35:36;7.80;;;3.25;;
55633;SDS011;41504;53.162;6.788;2023-07-13T10:38:16;6.25;;;2.95;;
55633;SDS011;41504;53.162;6.788;2023-07-13T10:43:25;8.40;;;3.83;;
55633;SDS011;41504;53.162;6.788;2023-07-13T10:45:53;8.68;;;3.40;;
55633;SDS011;41504;53.162;6.788;2023-07-13T10:48:21;7.95;;;3.10;;
55633;SDS011;41504;53.162;6.788;2023-07-13T10:50:49;6.07;;;3.20;;
55633;SDS011;41504;53.162;6.788;2023-07-13T10:53:21;6.65;;;3.17;;
55633;SDS011;41504;53.162;6.788;2023-07-13T11:08:56;6.20;;;3.10;;
55633;SDS011;41504;53.162;6.788;2023-07-13T11:18:50;7.80;;;2.40;;
55633;SDS011;41504;53.162;6.788;2023-07-13T11:21:29;6.88;;;2.65;;
55633;SDS011;41504;53.162;6.788;2023-07-13T11:31:54;8.88;;;2.50;;
55633;SDS011;41504;53.162;6.788;2023-07-13T11:34:33;5.53;;;2.42;;
55633;SDS011;41504;53.162;6.788;2023-07-13T11:37:01;4.80;;;2.40;;
55633;SDS011;41504;53.162;6.788;2023-07-13T11:42:01;6.55;;;2.45;;
55633;SDS011;41504;53.162;6.788;2023-07-13T11:44:30;4.28;;;1.95;;
55633;SDS011;41504;53.162;6.788;2023-07-13T11:46:58;5.43;;;2.10;;
55633;SDS011;41504;53.162;6.788;2023-07-13T11:49:40;3.88;;;1.73;;
55633;SDS011;41504;53.162;6.788;2023-07-13T11:52:13;4.25;;;1.73;;
55633;SDS011;41504;53.162;6.788;2023-07-13T11:54:48;3.53;;;1.42;;
55633;SDS011;41504;53.162;6.788;2023-07-13T11:57:30;5.03;;;1.60;;
55633;SDS011;41504;53.162;6.788;2023-07-13T11:59:59;6.45;;;1.63;;
55633;SDS011;41504;53.162;6.788;2023-07-13T12:02:31;5.00;;;1.70;;
55633;SDS011;41504;53.162;6.788;2023-07-13T12:04:59;4.72;;;1.52;;
55633;SDS011;41504;53.162;6.788;2023-07-13T12:07:28;4.10;;;1.60;;
55633;SDS011;41504;53.162;6.788;2023-07-13T12:12:35;4.40;;;1.88;;
55633;SDS011;41504;53.162;6.788;2023-07-13T12:15:09;6.68;;;1.67;;
55633;SDS011;41504;53.162;6.788;2023-07-13T12:17:36;3.95;;;1.60;;
55633;SDS011;41504;53.162;6.788;2023-07-13T12:20:04;3.70;;;1.63;;
55633;SDS011;41504;53.162;6.788;2023-07-13T12:22:49;5.25;;;1.90;;
55633;SDS011;41504;53.162;6.788;2023-07-13T12:25:16;5.05;;;1.90;;
55633;SDS011;41504;53.162;6.788;2023-07-13T12:27:42;6.03;;;1.73;;
55633;SDS011;41504;53.162;6.788;2023-07-13T12:30:29;4.70;;;1.77;;
55633;SDS011;41504;53.162;6.788;2023-07-13T12:33:06;6.40;;;1.65;;
55633;SDS011;41504;53.162;6.788;2023-07-13T12:35:39;6.03;;;1.70;;
55633;SDS011;41504;53.162;6.788;2023-07-13T12:38:17;3.83;;;1.48;;
55633;SDS011;41504;53.162;6.788;2023-07-13T12:40:48;5.78;;;2.00;;
55633;SDS011;41504;53.162;6.788;2023-07-13T12:43:16;4.28;;;1.85;;
55633;SDS011;41504;53.162;6.788;2023-07-13T12:51:14;4.93;;;1.60;;
55633;SDS011;41504;53.162;6.788;2023-07-13T12:53:51;4.40;;;1.60;;
55633;SDS011;41504;53.162;6.788;2023-07-13T12:56:23;6.10;;;1.80;;
55633;SDS011;41504;53.162;6.788;2023-07-13T12:58:56;4.78;;;1.85;;
55633;SDS011;41504;53.162;6.788;2023-07-13T13:01:32;3.33;;;1.50;;
55633;SDS011;41504;53.162;6.788;2023-07-13T13:04:01;4.28;;;1.60;;
55633;SDS011;41504;53.162;6.788;2023-07-13T13:06:33;3.65;;;1.50;;
55633;SDS011;41504;53.162;6.788;2023-07-13T13:09:01;3.95;;;1.52;;
55633;SDS011;41504;53.162;6.788;2023-07-13T13:11:29;5.53;;;1.80;;
55633;SDS011;41504;53.162;6.788;2023-07-13T13:13:56;5.10;;;1.60;;
55633;SDS011;41504;53.162;6.788;2023-07-13T13:16:23;4.68;;;1.92;;
55633;SDS011;41504;53.162;6.788;2023-07-13T13:19:01;5.00;;;1.73;;
55633;SDS011;41504;53.162;6.788;2023-07-13T13:21:56;5.25;;;1.95;;
55633;SDS011;41504;53.162;6.788;2023-07-13T13:24:23;5.88;;;1.90;;
55633;SDS011;41504;53.162;6.788;2023-07-13T13:26:51;4.95;;;1.60;;
55633;SDS011;41504;53.162;6.788;2023-07-13T13:29:22;4.25;;;1.67;;
55633;SDS011;41504;53.162;6.788;2023-07-13T13:31:50;4.65;;;1.83;;
55633;SDS011;41504;53.162;6.788;2023-07-13T13:34:17;3.92;;;1.70;;
55633;SDS011;41504;53.162;6.788;2023-07-13T13:36:44;5.28;;;1.50;;
55633;SDS011;41504;53.162;6.788;2023-07-13T13:39:25;4.30;;;1.50;;
55633;SDS011;41504;53.162;6.788;2023-07-13T13:41:57;5.45;;;1.80;;
55633;SDS011;41504;53.162;6.788;2023-07-13T13:44:23;7.13;;;2.00;;
55633;SDS011;41504;53.162;6.788;2023-07-13T13:46:53;5.30;;;1.80;;
55633;SDS011;41504;53.162;6.788;2023-07-13T13:49:21;5.95;;;1.85;;
55633;SDS011;41504;53.162;6.788;2023-07-13T13:51:50;6.28;;;1.88;;
55633;SDS011;41504;53.162;6.788;2023-07-13T13:54:17;4.22;;;1.63;;
55633;SDS011;41504;53.162;6.788;2023-07-13T13:56:44;6.15;;;1.85;;
55633;SDS011;41504;53.162;6.788;2023-07-13T13:59:11;5.53;;;1.90;;
55633;SDS011;41504;53.162;6.788;2023-07-13T14:01:37;6.15;;;2.03;;
55633;SDS011;41504;53.162;6.788;2023-07-13T14:04:04;5.30;;;2.17;;
55633;SDS011;41504;53.162;6.788;2023-07-13T14:06:32;5.22;;;1.77;;
55633;SDS011;41504;53.162;6.788;2023-07-13T14:09:01;8.05;;;2.50;;
55633;SDS011;41504;53.162;6.788;2023-07-13T14:11:27;5.32;;;2.20;;
55633;SDS011;41504;53.162;6.788;2023-07-13T14:13:56;6.00;;;2.13;;
55633;SDS011;41504;53.162;6.788;2023-07-13T14:16:28;6.13;;;2.25;;
55633;SDS011;41504;53.162;6.788;2023-07-13T14:21:25;5.88;;;2.08;;
55633;SDS011;41504;53.162;6.788;2023-07-13T14:23:51;6.75;;;2.17;;
55633;SDS011;41504;53.162;6.788;2023-07-13T14:26:21;4.93;;;2.20;;
55633;SDS011;41504;53.162;6.788;2023-07-13T14:28:51;6.40;;;2.20;;
55633;SDS011;41504;53.162;6.788;2023-07-13T14:31:18;5.95;;;2.10;;
55633;SDS011;41504;53.162;6.788;2023-07-13T14:33:44;7.88;;;2.20;;
55633;SDS011;41504;53.162;6.788;2023-07-13T14:36:16;6.60;;;2.28;;
55633;SDS011;41504;53.162;6.788;2023-07-13T14:38:47;4.75;;;2.00;;
55633;SDS011;41504;53.162;6.788;2023-07-13T14:41:13;5.43;;;2.05;;
55633;SDS011;41504;53.162;6.788;2023-07-13T14:43:39;5.80;;;2.17;;
55633;SDS011;41504;53.162;6.788;2023-07-13T14:46:05;4.82;;;2.00;;
55633;SDS011;41504;53.162;6.788;2023-07-13T14:48:33;6.43;;;1.85;;
55633;SDS011;41504;53.162;6.788;2023-07-13T14:50:59;7.13;;;2.20;;
55633;SDS011;41504;53.162;6.788;2023-07-13T14:53:25;6.50;;;1.98;;
55633;SDS011;41504;53.162;6.788;2023-07-13T14:55:52;5.07;;;1.77;;
55633;SDS011;41504;53.162;6.788;2023-07-13T14:58:19;7.32;;;2.22;;
55633;SDS011;41504;53.162;6.788;2023-07-13T15:00:44;5.03;;;1.80;;
55633;SDS011;41504;53.162;6.788;2023-07-13T15:03:18;7.18;;;2.13;;
55633;SDS011;41504;53.162;6.788;2023-07-13T15:05:47;6.38;;;1.70;;
55633;SDS011;41504;53.162;6.788;2023-07-13T15:08:14;4.43;;;1.85;;
55633;SDS011;41504;53.162;6.788;2023-07-13T15:10:40;5.50;;;1.80;;
55633;SDS011;41504;53.162;6.788;2023-07-13T15:13:16;4.68;;;2.08;;
55633;SDS011;41504;53.162;6.788;2023-07-13T15:15:46;6.15;;;2.10;;
55633;SDS011;41504;53.162;6.788;2023-07-13T15:18:16;4.65;;;1.75;;
55633;SDS011;41504;53.162;6.788;2023-07-13T15:20:44;6.20;;;1.95;;
55633;SDS011;41504;53.162;6.788;2023-07-13T15:23:12;6.18;;;1.85;;
55633;SDS011;41504;53.162;6.788;2023-07-13T15:25:40;5.20;;;2.13;;
55633;SDS011;41504;53.162;6.788;2023-07-13T15:28:08;5.93;;;1.88;;
55633;SDS011;41504;53.162;6.788;2023-07-13T15:30:36;5.53;;;2.00;;
55633;SDS011;41504;53.162;6.788;2023-07-13T15:33:49;6.63;;;2.10;;
55633;SDS011;41504;53.162;6.788;2023-07-13T15:35:56;4.68;;;1.70;;
55633;SDS011;41504;53.162;6.788;2023-07-13T15:38:29;5.60;;;1.90;;
55633;SDS011;41504;53.162;6.788;2023-07-13T15:40:56;6.55;;;2.05;;
55633;SDS011;41504;53.162;6.788;2023-07-13T15:43:22;5.50;;;1.90;;
55633;SDS011;41504;53.162;6.788;2023-07-13T15:45:48;6.35;;;2.15;;
55633;SDS011;41504;53.162;6.788;2023-07-13T15:48:20;6.38;;;2.13;;
55633;SDS011;41504;53.162;6.788;2023-07-13T15:50:52;6.82;;;2.08;;
55633;SDS011;41504;53.162;6.788;2023-07-13T15:53:20;6.07;;;1.90;;